createdAt,value
2019-01-24T00:01:05.881Z,21.37
2019-01-24T00:03:34.997Z,20.60
2019-01-24T00:06:04.424Z,21.37
2019-01-24T00:08:33.641Z,20.27
2019-01-24T00:11:02.791Z,20.87
2019-01-24T00:13:32.073Z,19.20
2019-01-24T00:16:01.232Z,19.17
2019-01-24T00:18:30.398Z,20.63
2019-01-24T00:20:59.787Z,21.20
2019-01-24T00:23:28.988Z,21.07
2019-01-24T00:25:58.129Z,20.77
2019-01-24T00:28:27.402Z,20.63
2019-01-24T00:30:56.522Z,20.63
2019-01-24T00:33:25.645Z,20.50
2019-01-24T00:35:54.787Z,19.67
2019-01-24T00:38:24.015Z,21.23
2019-01-24T00:40:53.237Z,20.67
2019-01-24T00:43:22.363Z,19.53
2019-01-24T00:45:51.519Z,19.90
2019-01-24T00:48:20.637Z,17.27
2019-01-24T00:50:49.771Z,19.57
2019-01-24T00:53:18.990Z,20.77
2019-01-24T00:55:48.117Z,20.30
2019-01-24T00:58:17.241Z,19.77
2019-01-24T01:00:46.409Z,19.63
2019-01-24T01:03:15.534Z,18.53
2019-01-24T01:05:44.735Z,19.67
2019-01-24T01:08:13.876Z,19.57
2019-01-24T01:10:43.034Z,17.93
2019-01-24T01:13:12.158Z,17.13
2019-01-24T01:15:41.297Z,17.87
2019-01-24T01:18:10.473Z,19.57
2019-01-24T01:20:39.597Z,19.37
2019-01-24T01:23:08.733Z,19.27
2019-01-24T01:25:37.901Z,20.20
2019-01-24T01:28:07.029Z,19.73
2019-01-24T01:30:36.230Z,18.47
2019-01-24T01:33:06.045Z,17.23
2019-01-24T01:35:35.201Z,17.77
2019-01-24T01:38:04.557Z,17.80
2019-01-24T01:40:33.672Z,17.53
2019-01-24T01:43:02.773Z,19.07
2019-01-24T01:45:31.896Z,19.50
2019-01-24T01:48:01.403Z,19.17
2019-01-24T01:50:30.809Z,17.97
2019-01-24T01:52:59.921Z,20.97
2019-01-24T01:55:29.103Z,19.23
2019-01-24T01:57:58.308Z,18.63
2019-01-24T02:00:27.509Z,17.97
2019-01-24T02:02:56.653Z,16.90
2019-01-24T02:05:25.832Z,18.90
2019-01-24T02:07:54.965Z,17.70
2019-01-24T02:10:25.074Z,17.80
2019-01-24T02:12:54.196Z,18.13
2019-01-24T02:15:23.429Z,18.13
2019-01-24T02:17:52.716Z,17.90
2019-01-24T02:20:22.897Z,17.83
2019-01-24T02:22:52.720Z,17.73
2019-01-24T02:25:22.067Z,17.00
2019-01-24T02:27:51.182Z,17.47
2019-01-24T02:30:25.535Z,17.30
2019-01-24T02:32:54.825Z,17.30
2019-01-24T02:35:24.144Z,17.57
2019-01-24T02:37:53.410Z,17.23
2019-01-24T02:40:22.737Z,16.57
2019-01-24T02:42:51.861Z,16.03
2019-01-24T02:45:23.047Z,17.40
2019-01-24T02:47:52.364Z,17.13
2019-01-24T02:50:22.024Z,17.80
2019-01-24T02:52:51.417Z,16.47
2019-01-24T02:55:20.563Z,17.80
2019-01-24T02:57:49.751Z,17.53
2019-01-24T03:00:20.725Z,18.57
2019-01-24T03:02:49.929Z,16.63
2019-01-24T03:05:20.805Z,17.53
2019-01-24T03:07:50.181Z,16.20
2019-01-24T03:10:19.517Z,16.20
2019-01-24T03:12:48.710Z,16.43
2019-01-24T03:15:19.121Z,16.50
2019-01-24T03:17:48.313Z,17.93
2019-01-24T03:20:17.884Z,17.07
2019-01-24T03:22:47.324Z,16.07
2019-01-24T03:25:16.917Z,16.87
2019-01-24T03:27:46.046Z,15.43
2019-01-24T03:30:17.714Z,17.20
2019-01-24T03:32:46.900Z,16.17
2019-01-24T03:35:18.685Z,15.87
2019-01-24T03:37:47.809Z,16.17
2019-01-24T03:40:17.127Z,15.60
2019-01-24T03:42:46.269Z,16.10
2019-01-24T03:45:16.349Z,16.30
2019-01-24T03:47:45.549Z,16.60
2019-01-24T03:50:16.794Z,16.80
2019-01-24T03:52:46.087Z,16.60
2019-01-24T03:55:16.311Z,17.43
2019-01-24T03:57:45.467Z,15.77
2019-01-24T04:00:22.879Z,15.33
2019-01-24T04:02:52.011Z,16.63
2019-01-24T04:05:21.525Z,16.00
2019-01-24T04:07:50.772Z,16.20
2019-01-24T04:10:21.054Z,17.37
2019-01-24T04:12:50.382Z,17.07
2019-01-24T04:15:21.485Z,18.70
2019-01-24T04:17:50.645Z,18.10
2019-01-24T04:20:19.848Z,17.70
2019-01-24T04:22:49.006Z,16.57
2019-01-24T04:25:18.253Z,17.53
2019-01-24T04:27:47.389Z,16.80
2019-01-24T04:30:18.940Z,17.47
2019-01-24T04:32:48.292Z,15.53
2019-01-24T04:35:20.085Z,16.40
2019-01-24T04:37:48.524Z,16.07
2019-01-24T04:40:18.406Z,16.63
2019-01-24T04:42:47.599Z,17.50
2019-01-24T04:45:17.157Z,14.80
2019-01-24T04:47:46.297Z,16.37
2019-01-24T04:50:16.890Z,16.83
2019-01-24T04:52:46.193Z,18.00
2019-01-24T04:55:17.419Z,15.63
2019-01-24T04:57:46.574Z,18.57
2019-01-24T05:00:21.349Z,18.00
2019-01-24T05:02:50.606Z,19.37
2019-01-24T05:05:27.184Z,18.40
2019-01-24T05:07:50.704Z,17.60
2019-01-24T05:10:19.836Z,18.53
2019-01-24T05:12:48.938Z,19.20
2019-01-24T05:15:18.200Z,19.70
2019-01-24T05:17:47.297Z,19.07
2019-01-24T05:20:16.415Z,19.00
2019-01-24T05:22:45.570Z,20.13
2019-01-24T05:25:15.899Z,20.83
2019-01-24T05:27:45.167Z,20.97
2019-01-24T05:30:23.485Z,19.80
2019-01-24T05:32:52.603Z,20.00
2019-01-24T05:35:21.717Z,20.53
2019-01-24T05:37:51.047Z,21.67
2019-01-24T05:40:20.175Z,19.60
2019-01-24T05:42:49.457Z,19.17
2019-01-24T05:45:18.720Z,20.73
2019-01-24T05:47:47.862Z,20.70
2019-01-24T05:50:17.030Z,19.50
2019-01-24T05:52:46.280Z,18.23
2019-01-24T05:55:15.445Z,18.60
2019-01-24T05:57:44.625Z,18.30
2019-01-24T06:00:19.707Z,17.17
2019-01-24T06:02:49.040Z,18.80
2019-01-24T06:05:18.403Z,18.00
2019-01-24T06:07:47.520Z,18.63
2019-01-24T06:10:16.791Z,16.87
2019-01-24T06:12:45.900Z,16.73
2019-01-24T06:15:15.826Z,16.20
2019-01-24T06:17:44.929Z,17.63
2019-01-24T06:20:14.204Z,16.23
2019-01-24T06:22:44.205Z,17.87
2019-01-24T06:25:13.456Z,17.20
2019-01-24T06:27:42.797Z,16.87
2019-01-24T06:30:17.466Z,15.47
2019-01-24T06:32:46.805Z,14.37
2019-01-24T06:35:16.188Z,15.40
2019-01-24T06:37:45.309Z,13.60
2019-01-24T06:40:15.144Z,16.40
2019-01-24T06:42:44.346Z,14.83
2019-01-24T06:45:18.918Z,15.63
2019-01-24T06:47:48.254Z,15.77
2019-01-24T06:50:18.425Z,15.73
2019-01-24T06:52:47.617Z,15.33
2019-01-24T06:55:19.736Z,19.03
2019-01-24T06:57:48.849Z,15.37
2019-01-24T07:00:18.448Z,18.20
2019-01-24T07:02:47.586Z,18.43
2019-01-24T07:05:16.872Z,19.03
2019-01-24T07:07:46.097Z,22.33
2019-01-24T07:10:17.151Z,23.07
2019-01-24T07:12:46.285Z,24.97
2019-01-24T07:15:17.732Z,24.27
2019-01-24T07:17:47.072Z,27.23
2019-01-24T07:20:17.335Z,24.67
2019-01-24T07:22:46.817Z,28.33
2019-01-24T07:25:18.580Z,27.40
2019-01-24T07:27:47.701Z,25.57
2019-01-24T07:30:17.539Z,23.67
2019-01-24T07:32:46.832Z,22.43
2019-01-24T07:35:17.056Z,21.77
2019-01-24T07:37:46.257Z,19.73
2019-01-24T07:40:16.832Z,19.10
2019-01-24T07:42:46.013Z,20.20
2019-01-24T07:45:24.280Z,18.83
2019-01-24T07:47:53.439Z,18.23
2019-01-24T07:50:22.606Z,17.53
2019-01-24T07:52:51.726Z,17.87
2019-01-24T07:55:20.897Z,19.13
2019-01-24T07:57:50.013Z,20.33
2019-01-24T08:00:21.809Z,19.43
2019-01-24T08:02:50.952Z,17.73
2019-01-24T08:05:20.338Z,18.57
2019-01-24T08:07:49.570Z,20.00
2019-01-24T08:10:19.513Z,20.77
2019-01-24T08:12:48.745Z,19.40
2019-01-24T08:15:19.559Z,17.10
2019-01-24T08:17:48.768Z,18.87
2019-01-24T08:20:19.913Z,18.83
2019-01-24T08:22:49.216Z,19.23
2019-01-24T08:25:18.524Z,19.03
2019-01-24T08:27:47.894Z,18.77
2019-01-24T08:30:19.357Z,19.97
2019-01-24T08:32:48.591Z,20.63
2019-01-24T08:35:17.712Z,20.73
2019-01-24T08:37:46.940Z,23.10
2019-01-24T08:40:16.709Z,22.33
2019-01-24T08:42:45.929Z,20.73
2019-01-24T08:45:15.420Z,24.47
2019-01-24T08:47:44.651Z,21.83
2019-01-24T08:50:16.042Z,25.83
2019-01-24T08:52:45.425Z,24.70
2019-01-24T08:55:20.432Z,22.50
2019-01-24T08:57:49.533Z,23.93
2019-01-24T09:00:19.481Z,20.77
2019-01-24T09:02:49.516Z,22.93
2019-01-24T09:05:18.797Z,26.07
2019-01-24T09:07:47.909Z,22.80
2019-01-24T09:10:20.085Z,25.23
2019-01-24T09:12:49.282Z,23.37
2019-01-24T09:15:18.408Z,25.30
2019-01-24T09:17:47.667Z,24.60
2019-01-24T09:20:17.376Z,22.47
2019-01-24T09:22:46.824Z,24.83
2019-01-24T09:25:15.971Z,23.80
2019-01-24T09:27:45.126Z,22.23
2019-01-24T09:30:17.179Z,21.67
2019-01-24T09:32:46.358Z,21.03
2019-01-24T09:35:15.837Z,21.47
2019-01-24T09:37:44.972Z,20.83
2019-01-24T09:40:14.934Z,21.27
2019-01-24T09:42:44.069Z,20.23
2019-01-24T09:45:16.005Z,19.67
2019-01-24T09:47:45.169Z,19.67
2019-01-24T09:50:17.015Z,20.80
2019-01-24T09:52:46.166Z,21.10
2019-01-24T09:55:15.277Z,23.23
2019-01-24T09:57:44.507Z,18.97
2019-01-24T10:00:16.421Z,20.87
2019-01-24T10:02:45.569Z,19.10
2019-01-24T10:05:15.904Z,19.33
2019-01-24T10:07:45.221Z,21.80
2019-01-24T10:10:16.454Z,22.43
2019-01-24T10:12:45.597Z,19.77
2019-01-24T10:15:15.329Z,20.17
2019-01-24T10:17:44.536Z,21.07
2019-01-24T10:20:15.104Z,22.17
2019-01-24T10:22:44.273Z,23.70
2019-01-24T10:25:19.084Z,18.83
2019-01-24T10:27:48.207Z,18.13
2019-01-24T10:30:19.018Z,18.63
2019-01-24T10:32:48.613Z,17.23
2019-01-24T10:35:17.918Z,17.40
2019-01-24T10:37:47.085Z,18.27
2019-01-24T10:40:21.691Z,17.03
2019-01-24T10:42:50.820Z,19.07
2019-01-24T10:45:20.829Z,20.72
2019-01-24T10:47:50.721Z,19.30
2019-01-24T10:50:20.969Z,21.37
2019-01-24T10:52:50.080Z,20.07
2019-01-24T10:55:20.828Z,22.87
2019-01-24T10:57:50.436Z,19.67
2019-01-24T11:00:32.156Z,21.90
2019-01-24T11:03:02.112Z,23.60
2019-01-24T11:05:31.270Z,23.13
2019-01-24T11:08:00.537Z,22.80
2019-01-24T11:10:29.690Z,19.90
2019-01-24T11:12:58.892Z,18.97
2019-01-24T11:15:27.990Z,21.00
2019-01-24T11:17:57.090Z,21.53
2019-01-24T11:20:27.629Z,19.73
2019-01-24T11:22:56.729Z,18.67
2019-01-24T11:25:26.100Z,19.27
2019-01-24T11:27:55.317Z,20.93
2019-01-24T11:30:26.444Z,19.73
2019-01-24T11:32:55.867Z,20.63
2019-01-24T11:35:27.666Z,20.63
2019-01-24T11:37:56.793Z,21.90
2019-01-24T11:40:25.941Z,23.03
2019-01-24T11:42:55.126Z,19.53
2019-01-24T11:45:26.726Z,17.97
2019-01-24T11:47:56.037Z,19.17
2019-01-24T11:50:25.152Z,19.10
2019-01-24T11:52:54.328Z,19.37
2019-01-24T11:55:23.488Z,21.90
2019-01-24T11:57:52.577Z,22.47
2019-01-24T12:00:29.273Z,22.13
2019-01-24T12:02:58.525Z,23.50
2019-01-24T12:05:27.637Z,22.30
2019-01-24T12:07:56.746Z,21.27
2019-01-24T12:10:26.505Z,19.90
2019-01-24T12:12:55.701Z,23.27
2019-01-24T12:15:25.153Z,23.37
2019-01-24T12:17:56.686Z,23.03
2019-01-24T12:20:26.076Z,23.23
2019-01-24T12:22:56.021Z,23.57
2019-01-24T12:25:25.205Z,20.60
2019-01-24T12:27:54.360Z,21.67
2019-01-24T12:30:28.221Z,19.80
2019-01-24T12:32:57.720Z,24.17
2019-01-24T12:35:26.936Z,23.80
2019-01-24T12:37:56.189Z,22.67
2019-01-24T12:40:25.394Z,22.27
2019-01-24T12:42:57.986Z,22.87
2019-01-24T12:45:34.369Z,20.77
2019-01-24T12:48:08.380Z,22.50
2019-01-24T12:50:40.932Z,24.73
2019-01-24T12:53:10.124Z,23.70
2019-01-24T12:55:41.297Z,24.80
2019-01-24T12:58:10.465Z,25.07
2019-01-24T13:00:40.041Z,24.57
2019-01-24T13:03:09.338Z,23.97
2019-01-24T13:05:38.469Z,25.37
2019-01-24T13:08:07.853Z,22.83
2019-01-24T13:10:38.736Z,21.87
2019-01-24T13:13:07.854Z,21.57
2019-01-24T13:15:37.053Z,19.77
2019-01-24T13:18:08.957Z,20.63
2019-01-24T13:20:39.021Z,24.20
2019-01-24T13:23:08.208Z,21.93
2019-01-24T13:25:37.367Z,19.00
2019-01-24T13:28:07.284Z,22.17
2019-01-24T13:30:36.478Z,19.03
2019-01-24T13:33:07.065Z,18.73
2019-01-24T13:35:36.711Z,19.90
2019-01-24T13:38:06.782Z,22.13
2019-01-24T13:40:36.030Z,22.63
2019-01-24T13:43:06.510Z,21.20
2019-01-24T13:45:38.124Z,20.50
2019-01-24T13:48:07.339Z,18.43
2019-01-24T13:50:36.489Z,18.70
2019-01-24T13:53:06.081Z,17.50
2019-01-24T13:55:35.377Z,19.90
2019-01-24T13:58:05.206Z,20.13
2019-01-24T14:00:39.161Z,19.83
2019-01-24T14:03:29.354Z,19.03
2019-01-24T14:05:58.489Z,20.83
2019-01-24T14:08:27.613Z,22.83
2019-01-24T14:10:58.035Z,23.03
2019-01-24T14:13:27.222Z,22.13
2019-01-24T14:15:56.401Z,22.07
2019-01-24T14:18:25.677Z,23.80
2019-01-24T14:20:57.609Z,25.00
2019-01-24T14:23:26.889Z,25.80
2019-01-24T14:25:56.005Z,22.53
2019-01-24T14:28:25.124Z,21.70
2019-01-24T14:30:54.334Z,23.40
2019-01-24T14:33:23.623Z,22.37
2019-01-24T14:35:52.837Z,21.50
2019-01-24T14:38:22.068Z,21.60
2019-01-24T14:40:51.385Z,23.03
2019-01-24T14:43:20.525Z,24.23
2019-01-24T14:45:49.697Z,24.00
2019-01-24T14:48:18.805Z,23.23
2019-01-24T14:50:47.938Z,23.13
2019-01-24T14:53:17.109Z,23.80
2019-01-24T14:55:46.278Z,22.57
2019-01-24T14:58:15.443Z,32.77
2019-01-24T15:00:48.993Z,23.83
2019-01-24T15:03:18.238Z,25.03
2019-01-24T15:05:47.429Z,30.97
2019-01-24T15:08:16.674Z,28.57
2019-01-24T15:10:45.817Z,27.37
2019-01-24T15:13:14.994Z,24.87
2019-01-24T15:15:44.097Z,22.83
2019-01-24T15:18:13.215Z,24.63
2019-01-24T15:20:42.344Z,23.13
2019-01-24T15:23:11.453Z,22.83
2019-01-24T15:25:40.781Z,21.90
2019-01-24T15:28:09.937Z,24.47
2019-01-24T15:30:39.149Z,25.30
2019-01-24T15:33:08.461Z,27.20
2019-01-24T15:35:37.598Z,25.30
2019-01-24T15:38:06.745Z,21.40
2019-01-24T15:40:35.989Z,22.00
2019-01-24T15:43:05.541Z,22.83
2019-01-24T15:45:35.082Z,22.90
2019-01-24T15:48:04.771Z,25.43
2019-01-24T15:50:34.113Z,27.33
2019-01-24T15:53:03.350Z,26.53
2019-01-24T15:55:32.502Z,22.43
2019-01-24T15:58:01.689Z,19.67
2019-01-24T16:00:32.252Z,21.23
2019-01-24T16:03:01.508Z,23.80
2019-01-24T16:05:30.659Z,24.37
2019-01-24T16:08:01.854Z,22.37
2019-01-24T16:10:30.804Z,20.27
2019-01-24T16:12:59.950Z,19.97
2019-01-24T16:15:31.225Z,22.37
2019-01-24T16:18:00.364Z,23.97
2019-01-24T16:20:30.677Z,21.23
2019-01-24T16:22:59.801Z,21.30
2019-01-24T16:25:30.806Z,19.47
2019-01-24T16:27:59.935Z,22.30
2019-01-24T16:30:30.701Z,20.20
2019-01-24T16:33:00.078Z,20.80
2019-01-24T16:35:29.735Z,19.30
2019-01-24T16:37:58.845Z,19.20
2019-01-24T16:40:28.680Z,20.07
2019-01-24T16:42:57.921Z,21.90
2019-01-24T16:45:28.564Z,23.00
2019-01-24T16:47:57.800Z,22.73
2019-01-24T16:50:28.177Z,21.07
2019-01-24T16:52:57.338Z,21.20
2019-01-24T16:55:26.574Z,19.70
2019-01-24T16:57:56.246Z,19.07
2019-01-24T17:00:43.637Z,20.70
2019-01-24T17:03:12.797Z,17.07
2019-01-24T17:05:42.015Z,17.23
2019-01-24T17:08:16.573Z,21.17
2019-01-24T17:10:42.141Z,20.27
2019-01-24T17:13:11.471Z,21.03
2019-01-24T17:15:42.171Z,20.77
2019-01-24T17:18:11.489Z,18.93
2019-01-24T17:20:40.617Z,22.13
2019-01-24T17:23:09.782Z,21.87
2019-01-24T17:25:38.921Z,23.60
2019-01-24T17:28:08.101Z,23.63
2019-01-24T17:30:37.338Z,23.83
2019-01-24T17:33:07.770Z,23.80
2019-01-24T17:35:36.942Z,22.17
2019-01-24T17:38:06.120Z,20.20
2019-01-24T17:40:35.373Z,18.97
2019-01-24T17:43:05.173Z,16.43
2019-01-24T17:45:34.325Z,16.90
2019-01-24T17:48:04.034Z,16.50
2019-01-24T17:50:33.142Z,16.37
2019-01-24T17:53:02.323Z,16.57
2019-01-24T17:55:39.902Z,17.93
2019-01-24T17:58:10.597Z,19.33
2019-01-24T18:00:43.449Z,24.43
2019-01-24T18:03:12.599Z,23.47
2019-01-24T18:05:41.917Z,20.87
2019-01-24T18:08:11.110Z,22.00
2019-01-24T18:10:40.248Z,25.13
2019-01-24T18:13:09.497Z,27.00
2019-01-24T18:15:38.621Z,26.63
2019-01-24T18:18:09.571Z,22.87
2019-01-24T18:20:38.883Z,30.10
2019-01-24T18:23:08.805Z,24.20
2019-01-24T18:25:38.137Z,25.23
2019-01-24T18:28:09.349Z,29.80
2019-01-24T18:30:38.725Z,30.63
2019-01-24T18:33:07.849Z,29.63
2019-01-24T18:35:37.648Z,28.20
2019-01-24T18:38:07.676Z,21.50
2019-01-24T18:40:37.133Z,21.67
2019-01-24T18:43:10.145Z,21.30
2019-01-24T18:45:45.612Z,21.33
2019-01-24T18:48:14.782Z,24.30
2019-01-24T18:50:43.929Z,25.53
2019-01-24T18:53:13.052Z,28.57
2019-01-24T18:55:42.325Z,28.13
2019-01-24T18:58:11.468Z,30.00
2019-01-24T19:00:45.489Z,29.30
2019-01-24T19:03:14.842Z,34.93
2019-01-24T19:05:44.669Z,26.57
2019-01-24T19:08:13.938Z,27.17
2019-01-24T19:10:43.053Z,24.90
2019-01-24T19:13:12.341Z,24.83
2019-01-24T19:15:43.561Z,22.57
2019-01-24T19:18:13.841Z,21.27
2019-01-24T19:20:43.181Z,22.60
2019-01-24T19:23:12.452Z,23.57
2019-01-24T19:25:41.706Z,23.87
2019-01-24T19:28:16.109Z,25.13
2019-01-24T19:30:46.613Z,24.63
2019-01-24T19:33:16.253Z,25.50
2019-01-24T19:35:45.445Z,24.07
2019-01-24T19:38:14.566Z,21.10
2019-01-24T19:40:43.677Z,22.33
2019-01-24T19:43:12.857Z,22.30
2019-01-24T19:45:42.157Z,23.57
2019-01-24T19:48:11.320Z,28.10
2019-01-24T19:50:40.447Z,26.43
2019-01-24T19:53:09.584Z,25.77
2019-01-24T19:55:38.786Z,24.03
2019-01-24T19:58:08.346Z,27.50
2019-01-24T20:00:37.510Z,26.97
2019-01-24T20:03:08.323Z,27.80
2019-01-24T20:05:37.537Z,28.83
2019-01-24T20:08:06.662Z,28.13
2019-01-24T20:10:35.778Z,22.67
2019-01-24T20:13:05.471Z,20.50
2019-01-24T20:15:34.672Z,20.87
2019-01-24T20:18:04.352Z,19.53
2019-01-24T20:20:33.531Z,22.03
2019-01-24T20:23:02.823Z,20.50
2019-01-24T20:25:32.830Z,21.57
2019-01-24T20:28:02.141Z,19.40
2019-01-24T20:30:32.565Z,19.93
2019-01-24T20:33:02.526Z,19.80
2019-01-24T20:35:57.861Z,19.97
2019-01-24T20:38:27.142Z,18.33
2019-01-24T20:40:56.412Z,19.67
2019-01-24T20:43:25.613Z,20.10
2019-01-24T20:45:54.741Z,19.37
2019-01-24T20:48:23.960Z,19.33
2019-01-24T20:50:53.286Z,19.03
2019-01-24T20:53:22.513Z,15.10
2019-01-24T20:55:51.736Z,16.87
2019-01-24T20:58:21.207Z,15.97
2019-01-24T21:00:50.369Z,15.97
2019-01-24T21:03:19.510Z,15.93
2019-01-24T21:05:48.929Z,16.47
2019-01-24T21:08:18.117Z,16.53
2019-01-24T21:10:47.310Z,17.93
2019-01-24T21:13:16.489Z,17.50
2019-01-24T21:15:45.777Z,16.47
2019-01-24T21:18:14.909Z,18.87
2019-01-24T21:20:44.046Z,17.43
2019-01-24T21:23:13.156Z,24.13
2019-01-24T21:25:42.309Z,19.67
2019-01-24T21:28:11.550Z,18.93
2019-01-24T21:30:40.713Z,18.70
2019-01-24T21:33:09.869Z,18.83
2019-01-24T21:35:38.990Z,18.60
2019-01-24T21:38:09.121Z,20.83
2019-01-24T21:40:38.262Z,19.87
2019-01-24T21:43:07.662Z,20.73
2019-01-24T21:45:37.693Z,17.60
2019-01-24T21:48:07.604Z,17.07
2019-01-24T21:50:36.968Z,20.63
2019-01-24T21:53:06.509Z,20.00
2019-01-24T21:55:35.657Z,19.47
2019-01-24T21:58:06.205Z,17.60
2019-01-24T22:00:35.467Z,16.83
2019-01-24T22:03:05.480Z,18.87
2019-01-24T22:05:34.725Z,17.60
2019-01-24T22:08:03.961Z,19.83
2019-01-24T22:10:33.198Z,18.77
2019-01-24T22:13:02.377Z,18.07
2019-01-24T22:15:31.768Z,17.60
2019-01-24T22:18:00.944Z,20.50
2019-01-24T22:20:30.313Z,19.47
2019-01-24T22:22:59.468Z,19.47
2019-01-24T22:25:33.464Z,19.87
2019-01-24T22:28:02.821Z,21.70
2019-01-24T22:30:51.513Z,20.03
2019-01-24T22:33:20.721Z,19.40
2019-01-24T22:35:50.057Z,17.10
2019-01-24T22:38:19.313Z,19.33
2019-01-24T22:40:48.514Z,20.00
2019-01-24T22:43:17.633Z,19.90
2019-01-24T22:45:46.849Z,19.00
2019-01-24T22:48:16.001Z,18.80
2019-01-24T22:50:45.137Z,18.63
2019-01-24T22:53:14.262Z,17.63
2019-01-24T22:55:43.421Z,19.53
2019-01-24T22:58:12.643Z,18.77
2019-01-24T23:00:55.785Z,18.53
2019-01-24T23:03:37.573Z,20.67
2019-01-24T23:06:07.129Z,19.97
2019-01-24T23:08:36.262Z,19.47
2019-01-24T23:11:05.912Z,17.83
2019-01-24T23:13:35.051Z,18.17
2019-01-24T23:16:04.896Z,18.13
2019-01-24T23:18:34.049Z,19.43
2019-01-24T23:21:03.393Z,19.37
2019-01-24T23:23:32.596Z,19.77
2019-01-24T23:26:01.769Z,19.70
2019-01-24T23:28:30.881Z,19.00
2019-01-24T23:31:00.002Z,18.77
2019-01-24T23:33:29.168Z,20.23
2019-01-24T23:35:58.429Z,21.20
2019-01-24T23:38:27.560Z,19.93
2019-01-24T23:40:57.286Z,20.43
2019-01-24T23:43:26.498Z,20.53
2019-01-24T23:45:55.732Z,20.23
2019-01-24T23:48:24.941Z,20.67
2019-01-24T23:50:54.061Z,19.77
2019-01-24T23:53:23.176Z,19.50
2019-01-24T23:55:52.301Z,19.33
2019-01-24T23:58:21.428Z,20.70
